createdAt,value
2022-11-16T00:02:56.505Z,78.81
2022-11-16T00:05:43.323Z,78.64
2022-11-16T00:08:37.239Z,78.76
2022-11-16T00:11:23.910Z,79.02
2022-11-16T00:14:10.476Z,79.29
2022-11-16T00:16:57.421Z,80.26
2022-11-16T00:19:43.912Z,79.79
2022-11-16T00:22:30.758Z,79.53
2022-11-16T00:25:17.769Z,79.46
2022-11-16T00:28:04.597Z,79.23
2022-11-16T00:30:58.922Z,79.27
2022-11-16T00:33:45.462Z,79.03
2022-11-16T00:36:31.894Z,79.00
2022-11-16T00:39:18.863Z,78.63
2022-11-16T00:42:05.769Z,78.69
2022-11-16T00:44:52.837Z,79.31
2022-11-16T00:47:39.326Z,79.13
2022-11-16T00:50:26.153Z,79.21
2022-11-16T00:53:13.914Z,78.92
2022-11-16T00:56:00.437Z,79.07
2022-11-16T00:58:47.180Z,78.88
2022-11-16T01:01:34.429Z,79.25
2022-11-16T01:04:21.461Z,79.37
2022-11-16T01:07:08.151Z,79.18
2022-11-16T01:09:55.025Z,78.95
2022-11-16T01:12:42.134Z,78.74
2022-11-16T01:15:29.091Z,79.16
2022-11-16T01:18:15.916Z,79.37
2022-11-16T01:21:06.425Z,79.34
2022-11-16T01:23:53.009Z,79.43
2022-11-16T01:26:39.690Z,79.79
2022-11-16T01:29:28.050Z,79.57
2022-11-16T01:32:15.508Z,79.38
2022-11-16T01:35:02.247Z,79.31
2022-11-16T01:37:48.612Z,79.49
2022-11-16T01:40:35.018Z,79.71
2022-11-16T01:43:27.343Z,80.28
2022-11-16T01:46:14.295Z,79.50
2022-11-16T01:49:12.482Z,79.53
2022-11-16T01:52:04.920Z,79.78
2022-11-16T01:54:52.912Z,79.87
2022-11-16T01:57:41.859Z,79.78
2022-11-16T02:00:28.769Z,79.84
2022-11-16T02:03:18.894Z,79.73
2022-11-16T02:06:12.883Z,79.56
2022-11-16T02:09:27.679Z,79.64
2022-11-16T02:12:41.870Z,79.59
2022-11-16T02:15:47.511Z,79.35
2022-11-16T02:19:00.038Z,78.90
2022-11-16T02:21:52.002Z,79.40
2022-11-16T02:25:17.567Z,79.49
2022-11-16T02:28:16.879Z,79.57
2022-11-16T02:31:05.367Z,79.35
2022-11-16T02:33:52.075Z,79.34
2022-11-16T02:36:38.991Z,79.06
2022-11-16T02:39:27.387Z,79.20
2022-11-16T02:42:28.308Z,79.24
2022-11-16T02:45:18.943Z,79.50
2022-11-16T02:48:08.658Z,79.24
2022-11-16T02:50:55.113Z,79.09
2022-11-16T02:53:51.836Z,79.15
2022-11-16T02:56:56.836Z,79.84
2022-11-16T02:59:45.605Z,79.47
2022-11-16T03:02:32.190Z,79.75
2022-11-16T03:05:32.349Z,79.65
2022-11-16T03:08:23.134Z,79.89
2022-11-16T03:11:36.365Z,80.11
2022-11-16T03:14:26.990Z,80.15
2022-11-16T03:17:23.294Z,80.56
2022-11-16T03:20:24.415Z,80.74
2022-11-16T03:23:16.419Z,80.76
2022-11-16T03:26:06.252Z,80.71
2022-11-16T03:29:15.284Z,80.81
2022-11-16T03:32:30.229Z,81.10
2022-11-16T03:35:22.500Z,81.54
2022-11-16T03:38:09.236Z,81.60
2022-11-16T03:41:02.579Z,81.60
2022-11-16T03:43:49.538Z,81.68
2022-11-16T03:51:23.647Z,81.74
2022-11-16T03:54:10.502Z,81.07
2022-11-16T03:56:57.096Z,81.43
2022-11-16T03:59:44.640Z,81.77
2022-11-16T04:02:31.411Z,81.67
2022-11-16T04:05:36.627Z,81.65
2022-11-16T04:08:41.744Z,81.32
2022-11-16T04:11:48.753Z,81.35
2022-11-16T04:14:54.100Z,81.64
2022-11-16T04:17:59.041Z,81.90
2022-11-16T04:21:04.004Z,81.84
2022-11-16T04:24:08.993Z,81.89
2022-11-16T04:27:15.988Z,81.93
2022-11-16T04:30:02.846Z,81.92
2022-11-16T04:33:07.857Z,81.68
2022-11-16T04:36:17.868Z,81.75
2022-11-16T04:39:06.777Z,81.40
2022-11-16T04:42:12.218Z,81.30
2022-11-16T04:45:17.576Z,81.32
2022-11-16T04:48:05.002Z,81.65
2022-11-16T04:50:51.608Z,81.63
2022-11-16T04:53:38.445Z,81.71
2022-11-16T04:56:25.554Z,81.79
2022-11-16T04:59:12.327Z,81.90
2022-11-16T05:02:10.791Z,81.35
2022-11-16T05:04:57.684Z,81.46
2022-11-16T05:07:44.499Z,81.10
2022-11-16T05:10:31.275Z,81.17
2022-11-16T05:13:17.823Z,81.26
2022-11-16T05:16:04.587Z,81.39
2022-11-16T05:19:11.412Z,81.49
2022-11-16T05:21:57.917Z,81.88
2022-11-16T05:24:46.058Z,81.78
2022-11-16T05:27:32.825Z,81.66
2022-11-16T05:30:19.575Z,81.54
2022-11-16T05:33:06.161Z,81.52
2022-11-16T05:35:53.060Z,81.75
2022-11-16T05:38:39.474Z,81.91
2022-11-16T05:41:25.988Z,82.02
2022-11-16T05:44:13.252Z,82.26
2022-11-16T05:47:00.137Z,82.26
2022-11-16T05:49:47.536Z,82.13
2022-11-16T05:52:34.095Z,82.26
2022-11-16T05:55:20.418Z,82.11
2022-11-16T05:58:07.002Z,82.06
2022-11-16T06:00:53.785Z,81.96
2022-11-16T06:03:40.453Z,81.59
2022-11-16T06:06:27.723Z,81.42
2022-11-16T06:09:14.621Z,81.75
2022-11-16T06:12:01.432Z,81.85
2022-11-16T06:14:48.214Z,82.09
2022-11-16T06:17:35.128Z,81.99
2022-11-16T06:20:21.900Z,82.17
2022-11-16T06:23:08.511Z,82.14
2022-11-16T06:25:55.420Z,82.02
2022-11-16T06:28:41.817Z,82.14
2022-11-16T06:31:28.302Z,81.90
2022-11-16T06:34:14.790Z,81.71
2022-11-16T06:37:01.260Z,81.75
2022-11-16T06:39:47.846Z,81.52
2022-11-16T06:42:34.740Z,81.46
2022-11-16T06:45:21.657Z,81.81
2022-11-16T06:48:08.700Z,82.01
2022-11-16T06:50:55.149Z,82.13
2022-11-16T06:53:41.886Z,81.80
2022-11-16T06:56:28.149Z,81.72
2022-11-16T06:59:15.054Z,81.60
2022-11-16T07:02:01.523Z,81.29
2022-11-16T07:04:48.252Z,81.30
2022-11-16T07:07:34.827Z,81.21
2022-11-16T07:10:22.246Z,81.43
2022-11-16T07:13:08.865Z,81.46
2022-11-16T07:16:01.146Z,81.37
2022-11-16T07:18:47.953Z,81.93
2022-11-16T07:21:35.126Z,81.84
2022-11-16T07:24:21.582Z,81.75
2022-11-16T07:27:08.955Z,81.64
2022-11-16T07:29:55.866Z,81.41
2022-11-16T07:32:43.350Z,81.49
2022-11-16T07:35:30.009Z,81.68
2022-11-16T07:38:18.130Z,81.90
2022-11-16T07:41:09.307Z,82.02
2022-11-16T07:43:57.002Z,82.10
2022-11-16T07:46:47.049Z,81.84
2022-11-16T07:49:34.080Z,81.61
2022-11-16T07:52:20.802Z,81.27
2022-11-16T07:55:08.028Z,81.48
2022-11-16T07:57:55.026Z,81.34
2022-11-16T08:00:41.663Z,81.54
2022-11-16T08:03:28.305Z,81.41
2022-11-16T08:06:19.981Z,81.35
2022-11-16T08:09:06.431Z,81.40
2022-11-16T08:11:53.092Z,81.78
2022-11-16T08:14:39.903Z,81.86
2022-11-16T08:17:26.302Z,81.86
2022-11-16T08:20:13.183Z,81.79
2022-11-16T08:23:00.932Z,81.39
2022-11-16T08:25:47.459Z,82.03
2022-11-16T08:28:34.434Z,81.94
2022-11-16T08:31:24.106Z,82.09
2022-11-16T08:34:10.999Z,82.40
2022-11-16T08:36:57.904Z,82.07
2022-11-16T08:39:44.886Z,82.13
2022-11-16T08:42:31.764Z,81.80
2022-11-16T08:45:18.428Z,82.17
2022-11-16T08:48:05.847Z,82.63
2022-11-16T08:51:15.994Z,82.34
2022-11-16T08:53:59.129Z,82.28
2022-11-16T08:56:46.113Z,82.22
2022-11-16T08:59:32.769Z,82.20
2022-11-16T09:02:25.696Z,82.17
2022-11-16T09:05:12.308Z,82.21
2022-11-16T09:07:59.118Z,82.34
2022-11-16T09:10:46.008Z,82.18
2022-11-16T09:13:32.599Z,82.18
2022-11-16T09:16:21.058Z,82.25
2022-11-16T09:19:08.051Z,82.42
2022-11-16T09:21:54.602Z,82.41
2022-11-16T09:24:41.136Z,82.35
2022-11-16T09:27:28.298Z,82.19
2022-11-16T09:30:15.445Z,82.30
2022-11-16T09:33:02.683Z,81.96
2022-11-16T09:35:49.391Z,82.01
2022-11-16T09:39:13.926Z,81.98
2022-11-16T09:41:58.712Z,82.26
2022-11-16T09:44:54.353Z,82.24
2022-11-16T09:47:45.991Z,82.41
2022-11-16T09:50:45.075Z,82.47
2022-11-16T09:53:49.556Z,82.31
2022-11-16T09:56:37.970Z,81.96
2022-11-16T09:59:29.984Z,82.25
2022-11-16T10:02:44.452Z,82.23
2022-11-16T10:06:08.209Z,82.49
2022-11-16T10:08:57.019Z,82.38
2022-11-16T10:12:08.628Z,82.63
2022-11-16T10:15:12.918Z,82.58
2022-11-16T10:18:16.390Z,82.56
2022-11-16T10:21:09.228Z,82.38
2022-11-16T10:24:08.903Z,82.71
2022-11-16T10:27:34.639Z,82.70
2022-11-16T10:30:21.965Z,82.60
2022-11-16T10:33:12.019Z,82.78
2022-11-16T10:35:58.947Z,82.64
2022-11-16T10:38:45.423Z,82.53
2022-11-16T10:41:36.118Z,82.53
2022-11-16T10:44:43.440Z,82.38
2022-11-16T10:47:36.973Z,82.18
2022-11-16T10:50:39.670Z,82.14
2022-11-16T10:53:41.821Z,82.70
2022-11-16T10:56:37.405Z,82.57
2022-11-16T10:59:40.256Z,82.41
2022-11-16T11:02:27.068Z,82.22
2022-11-16T11:05:22.959Z,82.41
2022-11-16T11:08:10.614Z,82.31
2022-11-16T11:11:01.785Z,82.40
2022-11-16T11:14:15.564Z,81.97
2022-11-16T11:17:11.203Z,81.87
2022-11-16T11:20:05.680Z,82.18
2022-11-16T11:22:56.421Z,82.18
2022-11-16T11:25:54.228Z,82.11
2022-11-16T11:28:47.853Z,81.77
2022-11-16T11:31:39.314Z,81.76
2022-11-16T11:34:30.355Z,81.83
2022-11-16T11:37:19.791Z,81.84
2022-11-16T11:40:20.065Z,81.87
2022-11-16T11:43:06.623Z,81.96
2022-11-16T11:46:11.039Z,81.99
2022-11-16T11:49:01.684Z,82.46
2022-11-16T11:51:48.358Z,82.20
2022-11-16T11:54:45.666Z,81.92
2022-11-16T11:57:35.547Z,81.70
2022-11-16T12:00:22.768Z,81.62
2022-11-16T12:03:46.279Z,81.97
2022-11-16T12:06:36.181Z,81.97
2022-11-16T12:09:49.174Z,81.94
2022-11-16T12:12:46.807Z,81.66
2022-11-16T12:16:00.258Z,81.67
2022-11-16T12:23:16.453Z,80.94
2022-11-16T12:26:11.095Z,80.99
2022-11-16T12:28:58.362Z,81.25
2022-11-16T12:31:58.088Z,81.28
2022-11-16T12:35:09.960Z,81.33
2022-11-16T12:38:06.130Z,81.70
2022-11-16T12:41:25.052Z,81.47
2022-11-16T12:44:13.031Z,81.86
2022-11-16T12:47:07.028Z,81.71
2022-11-16T12:50:28.768Z,81.38
2022-11-16T12:53:44.680Z,81.76
2022-11-16T12:56:37.273Z,81.49
2022-11-16T12:59:30.545Z,81.59
2022-11-16T13:02:44.744Z,81.45
2022-11-16T13:05:49.473Z,81.61
2022-11-16T13:08:47.124Z,81.86
2022-11-16T13:11:39.748Z,81.83
2022-11-16T13:14:33.042Z,81.97
2022-11-16T13:17:21.896Z,81.98
2022-11-16T13:20:40.592Z,81.56
2022-11-16T13:23:55.153Z,82.09
2022-11-16T13:26:48.269Z,82.22
2022-11-16T13:29:43.427Z,81.94
2022-11-16T13:32:34.973Z,82.42
2022-11-16T13:35:23.217Z,82.48
2022-11-16T13:38:15.715Z,82.09
2022-11-16T13:41:28.842Z,81.97
2022-11-16T13:44:20.390Z,82.09
2022-11-16T13:47:07.487Z,82.23
2022-11-16T13:49:57.863Z,82.02
2022-11-16T13:55:56.994Z,81.84
2022-11-16T13:58:47.879Z,81.83
2022-11-16T14:01:53.357Z,81.72
2022-11-16T14:04:42.528Z,81.73
2022-11-16T14:07:32.238Z,81.65
2022-11-16T14:10:34.111Z,81.87
2022-11-16T14:13:36.531Z,82.04
2022-11-16T14:16:23.127Z,82.46
2022-11-16T14:19:47.629Z,82.55
2022-11-16T14:23:02.720Z,81.85
2022-11-16T14:26:36.895Z,81.64
2022-11-16T14:29:41.532Z,82.16
2022-11-16T14:32:34.922Z,82.16
2022-11-16T14:35:30.483Z,82.15
2022-11-16T14:38:22.071Z,82.27
2022-11-16T14:41:22.489Z,82.29
2022-11-16T14:44:09.347Z,82.29
2022-11-16T14:46:56.587Z,82.04
2022-11-16T14:49:43.371Z,82.05
2022-11-16T14:52:36.890Z,82.13
2022-11-16T14:55:25.257Z,81.95
2022-11-16T14:58:22.111Z,82.17
2022-11-16T15:01:13.822Z,82.22
2022-11-16T15:04:04.748Z,82.14
2022-11-16T15:06:59.015Z,82.57
2022-11-16T15:09:53.652Z,82.64
2022-11-16T15:12:44.452Z,82.68
2022-11-16T15:15:31.600Z,82.65
2022-11-16T15:18:20.229Z,82.79
2022-11-16T15:21:07.271Z,82.81
2022-11-16T15:24:23.357Z,82.68
2022-11-16T15:27:16.315Z,82.91
2022-11-16T15:30:16.033Z,82.79
2022-11-16T15:33:15.581Z,82.64
2022-11-16T15:36:02.187Z,82.67
2022-11-16T15:38:48.649Z,82.77
2022-11-16T15:41:35.314Z,82.55
2022-11-16T15:44:22.251Z,82.44
2022-11-16T15:47:09.394Z,82.87
2022-11-16T15:49:56.259Z,82.93
2022-11-16T15:52:54.633Z,82.87
2022-11-16T15:55:41.719Z,82.94
2022-11-16T15:58:28.952Z,82.85
2022-11-16T16:01:15.580Z,82.80
2022-11-16T16:04:06.745Z,82.85
2022-11-16T16:06:58.010Z,82.77
2022-11-16T16:09:48.556Z,82.68
2022-11-16T16:12:35.125Z,82.59
2022-11-16T16:15:26.067Z,82.57
2022-11-16T16:18:34.576Z,82.78
2022-11-16T16:21:21.494Z,82.89
2022-11-16T16:24:10.103Z,82.66
2022-11-16T16:26:56.965Z,82.61
2022-11-16T16:29:47.204Z,82.75
2022-11-16T16:32:35.082Z,83.14
2022-11-16T16:35:23.180Z,83.23
2022-11-16T16:38:14.215Z,83.29
2022-11-16T16:41:02.817Z,83.36
2022-11-16T16:43:49.631Z,83.08
2022-11-16T16:46:36.787Z,83.32
2022-11-16T16:49:23.730Z,83.30
2022-11-16T16:52:12.284Z,83.10
2022-11-16T16:54:59.219Z,82.99
2022-11-16T16:57:45.768Z,82.96
2022-11-16T17:00:32.822Z,83.00
2022-11-16T17:03:19.711Z,83.15
2022-11-16T17:06:06.358Z,83.01
2022-11-16T17:08:53.623Z,82.78
2022-11-16T17:11:40.496Z,82.94
2022-11-16T17:14:27.210Z,82.89
2022-11-16T17:17:14.189Z,82.70
2022-11-16T17:20:01.017Z,82.81
2022-11-16T17:22:47.825Z,82.86
2022-11-16T17:25:35.046Z,83.02
2022-11-16T17:28:23.620Z,82.93
2022-11-16T17:31:11.526Z,82.69
2022-11-16T17:33:59.115Z,82.70
2022-11-16T17:36:47.381Z,82.67
2022-11-16T17:39:34.247Z,82.87
2022-11-16T17:42:20.833Z,82.66
2022-11-16T17:45:07.939Z,82.49
2022-11-16T17:47:54.921Z,82.50
2022-11-16T17:50:47.431Z,82.26
2022-11-16T17:53:35.693Z,82.11
2022-11-16T17:56:26.276Z,82.09
2022-11-16T17:59:12.860Z,82.12
2022-11-16T18:01:59.627Z,82.28
2022-11-16T18:04:51.395Z,82.49
2022-11-16T18:07:40.292Z,82.45
2022-11-16T18:10:26.991Z,82.44
2022-11-16T18:13:16.366Z,82.54
2022-11-16T18:16:07.288Z,82.35
2022-11-16T18:19:02.545Z,82.16
2022-11-16T18:21:49.567Z,82.27
2022-11-16T18:24:36.523Z,82.42
2022-11-16T18:27:22.962Z,82.54
2022-11-16T18:30:10.595Z,82.69
2022-11-16T18:32:57.218Z,82.56
2022-11-16T18:35:44.420Z,82.66
2022-11-16T18:38:31.076Z,82.70
2022-11-16T18:41:22.343Z,82.83
2022-11-16T18:44:08.748Z,83.09
2022-11-16T18:46:55.624Z,82.88
2022-11-16T18:49:42.263Z,82.82
2022-11-16T18:52:28.983Z,82.86
2022-11-16T18:55:15.771Z,82.91
2022-11-16T18:58:06.472Z,83.08
2022-11-16T19:01:06.656Z,83.22
2022-11-16T19:03:54.135Z,83.07
2022-11-16T19:06:40.536Z,82.88
2022-11-16T19:09:28.064Z,83.00
2022-11-16T19:12:14.612Z,83.04
2022-11-16T19:15:01.331Z,83.21
2022-11-16T19:18:06.725Z,83.09
2022-11-16T19:21:14.014Z,83.22
2022-11-16T19:24:00.826Z,83.04
2022-11-16T19:26:47.416Z,82.93
2022-11-16T19:29:34.441Z,83.03
2022-11-16T19:32:21.159Z,83.31
2022-11-16T19:35:10.997Z,83.39
2022-11-16T19:37:57.551Z,83.40
2022-11-16T19:40:44.258Z,83.27
2022-11-16T19:43:30.854Z,83.41
2022-11-16T19:46:17.459Z,83.02
2022-11-16T19:49:04.572Z,83.05
2022-11-16T19:51:51.383Z,83.04
2022-11-16T19:54:38.160Z,83.15
2022-11-16T19:57:25.115Z,83.24
2022-11-16T20:00:12.636Z,83.14
2022-11-16T20:02:59.449Z,83.17
2022-11-16T20:05:45.913Z,83.02
2022-11-16T20:08:32.348Z,82.82
2022-11-16T20:11:20.765Z,83.18
2022-11-16T20:14:09.384Z,83.42
2022-11-16T20:16:56.060Z,83.30
2022-11-16T20:19:42.975Z,83.23
2022-11-16T20:22:29.867Z,83.07
2022-11-16T20:25:16.981Z,83.06
2022-11-16T20:28:04.738Z,83.04
2022-11-16T20:30:51.239Z,83.15
2022-11-16T20:33:38.398Z,83.19
2022-11-16T20:36:26.499Z,83.32
2022-11-16T20:39:19.044Z,83.00
2022-11-16T20:42:05.548Z,83.22
2022-11-16T20:44:52.775Z,83.24
2022-11-16T20:47:39.577Z,83.34
2022-11-16T20:50:26.291Z,83.30
2022-11-16T20:53:12.992Z,83.11
2022-11-16T20:56:02.776Z,83.15
2022-11-16T20:58:50.082Z,83.33
2022-11-16T21:01:36.889Z,83.37
2022-11-16T21:04:23.659Z,83.30
2022-11-16T21:07:11.103Z,83.47
2022-11-16T21:10:18.846Z,83.18
2022-11-16T21:13:24.907Z,83.41
2022-11-16T21:16:12.486Z,83.35
2022-11-16T21:18:59.291Z,83.27
2022-11-16T21:21:46.365Z,83.21
2022-11-16T21:24:33.686Z,83.34
2022-11-16T21:27:20.292Z,83.47
2022-11-16T21:30:08.029Z,83.58
2022-11-16T21:32:54.429Z,83.50
2022-11-16T21:35:41.340Z,83.35
2022-11-16T21:38:28.048Z,83.50
2022-11-16T21:41:15.473Z,83.59
2022-11-16T21:44:01.876Z,83.70
2022-11-16T21:46:48.500Z,83.64
2022-11-16T21:49:43.253Z,83.60
2022-11-16T21:52:42.203Z,83.31
2022-11-16T21:55:29.291Z,83.70
2022-11-16T21:58:15.896Z,83.60
2022-11-16T22:01:02.811Z,83.98
2022-11-16T22:04:09.795Z,84.02
2022-11-16T22:07:15.454Z,84.11
2022-11-16T22:10:07.745Z,83.68
2022-11-16T22:12:54.400Z,83.65
2022-11-16T22:15:41.725Z,83.74
2022-11-16T22:18:29.865Z,83.90
2022-11-16T22:21:16.471Z,83.91
2022-11-16T22:24:03.082Z,83.55
2022-11-16T22:26:49.889Z,83.73
2022-11-16T22:29:36.599Z,83.93
2022-11-16T22:32:22.992Z,83.69
2022-11-16T22:35:09.603Z,83.45
2022-11-16T22:37:56.314Z,83.50
2022-11-16T22:40:49.574Z,83.79
2022-11-16T22:43:37.779Z,83.67
2022-11-16T22:46:24.840Z,83.58
2022-11-16T22:49:11.338Z,83.78
2022-11-16T22:51:58.146Z,83.75
2022-11-16T22:54:44.753Z,83.45
2022-11-16T22:57:31.048Z,83.31
2022-11-16T23:00:18.477Z,83.85
2022-11-16T23:03:05.323Z,83.43
2022-11-16T23:05:52.133Z,83.54
2022-11-16T23:08:40.346Z,83.73
2022-11-16T23:11:46.101Z,83.56
2022-11-16T23:14:51.638Z,83.71
2022-11-16T23:17:38.448Z,83.82
2022-11-16T23:20:43.999Z,83.45
2022-11-16T23:23:49.040Z,83.57
2022-11-16T23:26:54.487Z,83.61
2022-11-16T23:29:41.812Z,83.81
2022-11-16T23:32:29.182Z,83.84
2022-11-16T23:35:16.046Z,83.91
2022-11-16T23:38:04.393Z,83.54
2022-11-16T23:40:51.039Z,83.74
2022-11-16T23:43:56.646Z,83.72
2022-11-16T23:46:43.259Z,83.58
2022-11-16T23:49:29.963Z,83.76
2022-11-16T23:52:16.671Z,83.69
2022-11-16T23:55:03.073Z,83.74
2022-11-16T23:57:50.600Z,83.71
